Time;durP1;ratioP1;P1;durP2;ratioP2;P2;SDS_P1;SDS_P2;PMS_P1;PMS_P2;Temp;Humidity;BMP_temperature;BMP_pressure;BME280_temperature;BME280_humidity;BME280_pressure;Samples;Min_cycle;Max_cycle;Signal;HPM_P1;HPM_P2
2023/03/20 00:00:37;;;;;;;75.00;42.00;;;;;;;5.59;70.96;100640.23;105167;1266;99081;-77
2023/03/20 00:03:22;;;;;;;80.10;44.80;;;;;;;5.54;71.00;100633.98;105167;1264;97754;-77
2023/03/20 00:06:31;;;;;;;74.80;43.00;;;;;;;5.52;71.19;100629.05;105115;1264;97187;-77
2023/03/20 00:09:16;;;;;;;67.30;42.40;;;;;;;5.49;71.01;100631.61;105506;1265;96494;-78
2023/03/20 00:12:04;;;;;;;76.60;43.60;;;;;;;5.44;70.75;100632.63;105667;1265;99989;-78
2023/03/20 00:14:50;;;;;;;74.70;43.60;;;;;;;5.41;70.61;100633.34;105614;1261;100857;-78
2023/03/20 00:17:36;;;;;;;81.20;44.70;;;;;;;5.37;70.71;100633.37;105525;1265;97903;-77
2023/03/20 00:20:22;;;;;;;75.90;45.10;;;;;;;5.35;70.89;100629.01;105547;1265;96540;-77
2023/03/20 00:23:08;;;;;;;80.40;47.20;;;;;;;5.33;71.17;100623.92;105516;1266;96749;-77
2023/03/20 00:25:54;;;;;;;84.90;48.20;;;;;;;5.31;71.29;100620.91;105486;1264;100897;-77
2023/03/20 00:28:45;;;;;;;80.30;42.60;;;;;;;5.27;71.54;100622.69;105804;1260;100523;-77
2023/03/20 00:31:38;;;;;;;78.30;42.90;;;;;;;5.24;72.02;100620.89;105623;1265;99333;-78
2023/03/20 00:34:28;;;;;;;73.60;40.80;;;;;;;5.19;71.88;100624.04;105525;1266;97919;-78
2023/03/20 00:37:14;;;;;;;74.50;42.40;;;;;;;5.14;71.86;100623.48;105594;1267;97176;-77
2023/03/20 00:39:59;;;;;;;70.60;42.10;;;;;;;5.11;71.79;100623.48;105553;1265;100982;-78
2023/03/20 00:42:56;;;;;;;78.10;44.00;;;;;;;5.07;71.65;100620.70;105493;1262;99425;-77
2023/03/20 00:45:44;;;;;;;78.40;45.20;;;;;;;5.02;71.85;100613.02;105419;1266;98550;-77
2023/03/20 00:48:31;;;;;;;81.80;45.50;;;;;;;5.00;71.86;100612.50;105089;1267;97062;-78
2023/03/20 00:51:17;;;;;;;83.00;46.10;;;;;;;4.97;71.85;100607.36;105414;1263;97361;-77
2023/03/20 00:54:13;;;;;;;79.20;45.20;;;;;;;4.94;71.82;100607.27;105525;1265;100019;-77
2023/03/20 00:57:03;;;;;;;85.20;47.30;;;;;;;4.92;71.89;100601.50;105574;1260;99142;-78
2023/03/20 00:59:58;;;;;;;81.20;46.10;;;;;;;4.91;72.00;100599.30;105529;1268;97768;-77
2023/03/20 01:02:44;;;;;;;86.80;48.10;;;;;;;4.89;72.32;100597.54;105521;1265;96714;-78
2023/03/20 01:05:30;;;;;;;82.80;48.50;;;;;;;4.88;72.46;100597.14;105573;1261;95864;-77
2023/03/20 01:08:18;;;;;;;83.50;51.20;;;;;;;4.88;72.78;100597.29;105511;1265;100006;-78
2023/03/20 01:11:04;;;;;;;87.90;50.10;;;;;;;4.88;72.99;100592.48;105432;1268;99139;-77
2023/03/20 01:13:51;;;;;;;88.10;49.90;;;;;;;4.88;72.95;100589.30;105523;1265;97722;-78
2023/03/20 01:16:36;;;;;;;92.10;50.80;;;;;;;4.86;73.06;100584.95;105647;1270;96632;-78
2023/03/20 01:19:22;;;;;;;96.70;52.60;;;;;;;4.85;73.23;100585.34;105617;1267;96569;-78
2023/03/20 01:22:08;;;;;;;101.50;56.40;;;;;;;4.84;73.23;100583.91;105573;1265;100281;-77
2023/03/20 01:24:54;;;;;;;114.90;63.30;;;;;;;4.83;73.39;100584.31;105567;1276;99208;-78
2023/03/20 01:27:39;;;;;;;111.30;62.90;;;;;;;4.80;73.42;100582.00;105644;1266;97720;-78
2023/03/20 01:30:28;;;;;;;102.50;60.10;;;;;;;4.74;73.27;100580.64;105554;1260;96585;-78
2023/03/20 01:33:16;;;;;;;93.60;57.30;;;;;;;4.69;73.34;100582.65;105518;1266;97138;-77
2023/03/20 01:36:03;;;;;;;94.10;56.60;;;;;;;4.65;73.51;100583.43;105263;1266;101390;-77
2023/03/20 01:38:54;;;;;;;91.50;52.60;;;;;;;4.61;73.60;100583.96;105125;1265;99177;-77
2023/03/20 01:41:40;;;;;;;89.10;51.20;;;;;;;4.57;73.61;100586.11;105461;1267;97813;-77
2023/03/20 01:44:32;;;;;;;97.10;54.30;;;;;;;4.54;73.67;100585.04;105545;1261;96621;-77
2023/03/20 01:47:23;;;;;;;92.00;53.70;;;;;;;4.54;73.77;100584.34;105602;1268;97139;-77
2023/03/20 01:50:25;;;;;;;85.60;52.00;;;;;;;4.53;73.90;100583.56;105513;1265;101977;-78
2023/03/20 01:53:19;;;;;;;93.60;52.60;;;;;;;4.52;74.09;100586.14;105999;1270;99160;-78
2023/03/20 01:56:19;;;;;;;86.10;52.40;;;;;;;4.51;74.11;100588.48;105448;1267;99031;-78
2023/03/20 01:59:20;;;;;;;93.60;53.20;;;;;;;4.52;74.26;100588.27;105644;1261;96649;-79
2023/03/20 02:02:08;;;;;;;89.50;52.40;;;;;;;4.51;74.00;100588.55;105565;1261;96543;-78
2023/03/20 02:05:00;;;;;;;86.60;51.70;;;;;;;4.49;74.39;100585.24;105674;1261;100148;-78
2023/03/20 02:07:58;;;;;;;81.20;49.40;;;;;;;4.47;74.58;100583.40;105573;1266;100460;-78
2023/03/20 02:10:45;;;;;;;86.20;50.30;;;;;;;4.42;74.51;100582.48;105586;1263;97761;-78
2023/03/20 02:13:39;;;;;;;98.90;57.90;;;;;;;4.36;74.82;100582.77;105514;1269;97433;-77
2023/03/20 02:16:26;;;;;;;97.30;55.20;;;;;;;4.33;75.07;100582.34;105558;1265;96502;-77
2023/03/20 02:19:37;;;;;;;100.30;57.30;;;;;;;4.32;75.31;100583.73;105384;1266;101253;-77
2023/03/20 02:22:47;;;;;;;92.30;54.60;;;;;;;4.27;75.36;100579.45;105553;1266;99556;-78
2023/03/20 02:25:38;;;;;;;89.30;53.50;;;;;;;4.21;75.50;100579.77;105599;1260;97729;-78
2023/03/20 02:28:49;;;;;;;95.80;54.80;;;;;;;4.20;75.53;100578.52;105862;1264;96489;-78
2023/03/20 02:31:54;;;;;;;94.60;54.60;;;;;;;4.21;75.49;100574.73;105500;1267;96851;-77
2023/03/20 02:35:04;;;;;;;98.90;55.10;;;;;;;4.21;75.64;100568.73;105419;1274;100000;-76
2023/03/20 02:38:07;;;;;;;94.00;54.20;;;;;;;4.19;75.61;100569.36;105223;1261;99811;-76
2023/03/20 02:41:08;;;;;;;92.80;54.40;;;;;;;4.18;76.05;100570.60;105893;1266;97722;-78
2023/03/20 02:44:30;;;;;;;92.80;52.30;;;;;;;4.16;76.19;100570.74;105449;1265;96608;-75
2023/03/20 02:47:48;;;;;;;87.60;49.90;;;;;;;4.11;76.33;100565.55;105495;1261;97112;-78
2023/03/20 02:51:02;;;;;;;88.90;50.00;;;;;;;4.09;76.44;100565.06;105602;1267;101253;-77
2023/03/20 02:53:58;;;;;;;91.40;52.90;;;;;;;4.06;76.45;100567.98;105583;1264;100108;-77
2023/03/20 02:57:01;;;;;;;103.80;53.90;;;;;;;4.03;76.55;100568.80;105538;1266;99007;-78
2023/03/20 02:59:54;;;;;;;89.60;51.90;;;;;;;4.00;76.56;100565.56;106098;1266;96655;-77
2023/03/20 03:02:58;;;;;;;93.10;53.80;;;;;;;3.99;76.57;100565.39;105549;1262;97215;-77
2023/03/20 03:05:53;;;;;;;88.90;52.70;;;;;;;3.95;76.73;100572.22;105587;1267;101243;-77
2023/03/20 03:08:43;;;;;;;86.40;50.20;;;;;;;3.93;76.61;100575.48;105567;1260;99775;-77
2023/03/20 03:11:33;;;;;;;92.50;54.60;;;;;;;3.90;76.62;100572.30;105524;1261;98984;-77
2023/03/20 03:14:50;;;;;;;96.20;56.00;;;;;;;3.92;76.79;100570.58;105772;1266;96649;-78
2023/03/20 03:17:39;;;;;;;97.80;55.00;;;;;;;3.93;77.03;100568.73;105461;1266;97324;-77
2023/03/20 03:20:32;;;;;;;92.90;54.10;;;;;;;3.93;77.35;100565.41;105435;1265;99990;-78
2023/03/20 03:23:38;;;;;;;96.10;56.80;;;;;;;3.91;77.16;100563.45;105595;1267;99272;-77
2023/03/20 03:26:27;;;;;;;99.30;53.50;;;;;;;3.87;77.24;100565.73;105388;1264;97872;-78
2023/03/20 03:29:18;;;;;;;88.50;53.90;;;;;;;3.84;76.98;100562.84;105668;1269;97121;-78
2023/03/20 03:32:06;;;;;;;89.40;53.20;;;;;;;3.83;76.89;100560.52;105281;1269;96688;-77
2023/03/20 03:34:53;;;;;;;91.40;53.60;;;;;;;3.79;76.75;100561.02;105700;1263;100002;-78
2023/03/20 03:38:11;;;;;;;90.80;53.70;;;;;;;3.79;77.02;100557.34;105848;1261;99758;-78
2023/03/20 03:41:12;;;;;;;93.50;54.00;;;;;;;3.79;77.12;100556.25;105195;1269;97868;-77
2023/03/20 03:44:16;;;;;;;95.30;54.20;;;;;;;3.78;77.41;100551.60;105326;1266;96601;-76
2023/03/20 03:47:07;;;;;;;94.90;53.40;;;;;;;3.76;77.73;100549.34;105416;1265;97027;-78
2023/03/20 03:50:00;;;;;;;87.10;50.70;;;;;;;3.75;77.90;100550.46;105470;1266;100783;-78
2023/03/20 03:52:48;;;;;;;86.50;49.60;;;;;;;3.70;77.60;100546.52;105526;1266;99107;-78
2023/03/20 03:55:40;;;;;;;87.60;50.40;;;;;;;3.65;77.60;100548.23;105416;1276;97727;-76
2023/03/20 03:58:38;;;;;;;86.10;51.00;;;;;;;3.60;77.53;100546.61;105539;1267;96738;-78
2023/03/20 04:01:27;;;;;;;89.90;50.60;;;;;;;3.56;77.49;100542.20;105488;1261;96633;-77
2023/03/20 04:04:15;;;;;;;93.30;51.20;;;;;;;3.53;77.60;100540.71;106233;1266;99992;-78
2023/03/20 04:07:01;;;;;;;84.70;52.40;;;;;;;3.53;77.62;100543.09;106620;1264;99113;-79
2023/03/20 04:09:46;;;;;;;89.70;49.70;;;;;;;3.52;77.58;100544.42;105402;1270;97738;-78
2023/03/20 04:12:33;;;;;;;89.20;48.90;;;;;;;3.47;77.51;100540.95;105612;1264;96612;-78
2023/03/20 04:15:20;;;;;;;88.60;49.00;;;;;;;3.46;77.69;100539.83;105577;1263;98376;-79
2023/03/20 04:18:06;;;;;;;88.20;48.80;;;;;;;3.43;77.46;100542.23;105398;1267;101229;-78
2023/03/20 04:20:52;;;;;;;87.60;49.60;;;;;;;3.38;77.43;100546.02;105612;1261;100176;-78
2023/03/20 04:23:37;;;;;;;87.20;49.40;;;;;;;3.34;77.60;100547.83;105298;1271;97752;-77
2023/03/20 04:26:23;;;;;;;88.40;49.00;;;;;;;3.31;77.57;100546.55;105560;1261;96560;-77
2023/03/20 04:29:09;;;;;;;84.10;48.60;;;;;;;3.26;77.79;100544.89;105498;1266;97247;-78
2023/03/20 04:32:17;;;;;;;77.90;47.10;;;;;;;3.23;78.15;100549.36;105499;1261;99997;-77
2023/03/20 04:35:19;;;;;;;80.60;48.50;;;;;;;3.19;77.90;100551.86;105520;1261;99097;-78
2023/03/20 04:38:18;;;;;;;72.30;43.50;;;;;;;3.15;78.21;100551.36;105488;1261;99484;-78
2023/03/20 04:41:04;;;;;;;74.60;43.30;;;;;;;3.13;78.34;100547.52;105561;1262;96670;-79
2023/03/20 04:43:49;;;;;;;68.20;41.60;;;;;;;3.12;78.15;100544.96;105583;1260;96848;-78
2023/03/20 04:46:35;;;;;;;69.00;41.10;;;;;;;3.11;78.12;100545.95;105481;1265;100028;-78
2023/03/20 04:49:25;;;;;;;77.10;44.00;;;;;;;3.10;78.11;100544.09;105472;1261;100781;-79
2023/03/20 04:52:11;;;;;;;83.90;47.30;;;;;;;3.07;78.09;100544.84;105397;1265;99543;-78
2023/03/20 04:55:00;;;;;;;86.30;47.20;;;;;;;3.06;78.50;100546.70;105506;1261;96617;-78
2023/03/20 04:57:45;;;;;;;70.50;43.20;;;;;;;3.07;78.82;100548.89;105494;1260;97554;-78
2023/03/20 05:00:32;;;;;;;74.30;43.20;;;;;;;3.07;78.78;100548.92;105525;1265;99994;-79
2023/03/20 05:03:18;;;;;;;79.60;44.20;;;;;;;3.08;78.94;100544.65;105482;1261;99072;-78
2023/03/20 05:06:05;;;;;;;74.30;42.30;;;;;;;3.07;78.83;100541.20;105549;1260;98454;-79
2023/03/20 05:08:52;;;;;;;79.60;45.10;;;;;;;3.07;78.92;100544.15;105484;1261;96648;-77
2023/03/20 05:11:37;;;;;;;76.50;45.10;;;;;;;3.09;79.03;100547.88;105406;1264;97967;-78
2023/03/20 05:14:42;;;;;;;91.00;49.60;;;;;;;3.11;79.35;100547.86;105572;1260;100687;-77
2023/03/20 05:17:47;;;;;;;85.70;49.10;;;;;;;3.16;79.47;100547.27;105444;1264;99098;-77
2023/03/20 05:20:52;;;;;;;95.70;51.30;;;;;;;3.20;79.65;100546.11;105512;1264;99439;-77
2023/03/20 05:23:46;;;;;;;87.90;50.80;;;;;;;3.24;79.65;100542.97;105509;1260;97904;-78
2023/03/20 05:26:43;;;;;;;87.90;50.80;;;;;;;3.26;79.83;100546.63;105514;1267;97135;-77
2023/03/20 05:29:57;;;;;;;102.30;54.40;;;;;;;3.30;80.10;100548.09;105606;1264;100717;-77
2023/03/20 05:33:00;;;;;;;96.00;55.10;;;;;;;3.34;80.15;100547.83;105476;1264;100383;-77
2023/03/20 05:35:46;;;;;;;102.50;56.80;;;;;;;3.39;80.40;100546.02;105483;1261;97788;-78
2023/03/20 05:38:42;;;;;;;94.60;56.20;;;;;;;3.43;80.44;100549.30;105433;1267;96711;-78
2023/03/20 05:41:39;;;;;;;107.60;56.70;;;;;;;3.48;80.52;100552.18;105508;1261;97157;-78
2023/03/20 05:44:44;;;;;;;101.20;56.30;;;;;;;3.55;80.79;100556.81;105473;1264;100475;-78
2023/03/20 05:47:48;;;;;;;108.70;60.50;;;;;;;3.64;81.22;100554.71;105595;1264;100377;-77
2023/03/20 05:51:04;;;;;;;104.70;57.80;;;;;;;3.73;81.60;100554.48;105471;1271;97742;-78
2023/03/20 05:54:10;;;;;;;113.60;61.50;;;;;;;3.83;81.99;100553.60;105559;1265;97476;-77
2023/03/20 05:57:16;;;;;;;103.30;58.00;;;;;;;3.90;82.29;100552.58;105809;1261;97147;-78
2023/03/20 06:00:19;;;;;;;113.70;64.40;;;;;;;3.98;82.86;100554.67;106247;1261;101729;-78
2023/03/20 06:03:05;;;;;;;109.60;63.20;;;;;;;4.05;83.24;100550.77;105400;1260;99167;-78
2023/03/20 06:06:10;;;;;;;104.40;59.70;;;;;;;4.15;83.36;100553.55;105466;1265;97900;-80
2023/03/20 06:08:55;;;;;;;103.40;58.60;;;;;;;4.24;83.54;100552.30;105697;1265;96619;-79
2023/03/20 06:11:41;;;;;;;106.10;57.80;;;;;;;4.34;83.96;100557.09;105455;1267;96718;-78
2023/03/20 06:14:27;;;;;;;104.00;59.90;;;;;;;4.45;84.23;100558.39;105732;1261;101161;-79
2023/03/20 06:17:16;;;;;;;100.20;57.90;;;;;;;4.55;84.46;100560.88;106743;1260;100762;-78
2023/03/20 06:20:07;;;;;;;94.50;56.50;;;;;;;4.65;84.84;100562.91;106316;1264;97739;-78
2023/03/20 06:22:52;;;;;;;103.10;58.20;;;;;;;4.75;84.67;100567.09;105806;1265;96639;-77
2023/03/20 06:25:37;;;;;;;98.50;55.10;;;;;;;4.85;84.48;100570.98;105691;1260;97221;-78
2023/03/20 06:28:26;;;;;;;89.60;55.70;;;;;;;4.96;84.44;100577.34;105580;1265;101430;-78
2023/03/20 06:31:18;;;;;;;97.60;56.40;;;;;;;5.07;84.60;100579.39;105836;1261;100136;-78
2023/03/20 06:34:04;;;;;;;101.20;58.10;;;;;;;5.17;85.04;100580.85;105476;1268;97722;-78
2023/03/20 06:36:51;;;;;;;103.90;60.40;;;;;;;5.27;84.85;100581.27;105586;1260;96541;-78
2023/03/20 06:39:40;;;;;;;102.10;59.20;;;;;;;5.37;84.43;100582.27;105647;1261;97161;-78
2023/03/20 06:42:29;;;;;;;107.10;62.00;;;;;;;5.46;84.03;100581.98;105625;1260;101701;-77
2023/03/20 06:45:15;;;;;;;105.50;62.30;;;;;;;5.58;83.93;100580.98;105572;1260;99080;-77
2023/03/20 06:48:10;;;;;;;104.90;59.50;;;;;;;5.69;83.61;100580.18;105590;1261;97714;-78
2023/03/20 06:50:56;;;;;;;102.20;58.50;;;;;;;5.80;83.46;100577.96;105644;1264;96706;-78
2023/03/20 06:53:45;;;;;;;102.30;57.30;;;;;;;5.92;83.25;100579.57;105598;1262;96719;-78
2023/03/20 06:56:37;;;;;;;104.90;60.50;;;;;;;6.05;83.24;100586.58;105556;1265;99994;-77
2023/03/20 06:59:23;;;;;;;136.70;72.20;;;;;;;6.18;83.16;100584.67;105731;1260;99193;-78
2023/03/20 07:02:10;;;;;;;117.20;65.80;;;;;;;6.32;83.32;100583.39;105517;1263;98972;-77
2023/03/20 07:04:56;;;;;;;116.90;63.30;;;;;;;6.45;83.03;100582.35;105559;1260;97980;-77
2023/03/20 07:07:47;;;;;;;106.60;59.60;;;;;;;6.57;82.87;100581.30;105501;1261;96526;-78
2023/03/20 07:10:33;;;;;;;108.00;60.50;;;;;;;6.68;83.00;100579.77;105672;1260;101237;-78
2023/03/20 07:13:19;;;;;;;101.10;58.30;;;;;;;6.80;82.97;100580.60;105722;1260;99184;-78
2023/03/20 07:16:06;;;;;;;101.90;57.50;;;;;;;6.91;82.79;100578.52;105534;1260;97774;-77
2023/03/20 07:18:55;;;;;;;105.30;58.70;;;;;;;7.03;82.60;100577.56;105235;1265;96626;-78
2023/03/20 07:21:42;;;;;;;94.00;56.60;;;;;;;7.14;82.22;100578.49;105637;1260;96497;-78
2023/03/20 07:24:28;;;;;;;98.60;58.30;;;;;;;7.24;81.89;100576.54;105589;1262;99970;-77
2023/03/20 07:27:16;;;;;;;95.80;55.80;;;;;;;7.34;81.55;100581.46;105669;1260;100507;-78
2023/03/20 07:30:05;;;;;;;97.90;56.80;;;;;;;7.46;81.56;100581.53;105902;1261;98500;-79
2023/03/20 07:32:51;;;;;;;103.00;58.00;;;;;;;7.58;81.51;100579.66;105986;1264;97228;-79
2023/03/20 07:35:38;;;;;;;101.60;60.20;;;;;;;7.70;81.21;100578.50;105970;1260;97199;-78
2023/03/20 07:38:24;;;;;;;97.50;60.30;;;;;;;7.83;81.34;100579.76;105723;1265;100003;-77
2023/03/20 07:41:23;;;;;;;96.90;57.80;;;;;;;7.97;80.92;100578.57;105678;1263;99272;-77
2023/03/20 07:44:18;;;;;;;96.30;56.20;;;;;;;8.09;79.98;100582.09;105631;1265;98532;-78
2023/03/20 07:47:10;;;;;;;90.90;54.10;;;;;;;8.22;79.92;100579.89;105990;1261;96666;-79
2023/03/20 07:49:56;;;;;;;95.20;55.10;;;;;;;8.33;79.40;100576.71;105576;1265;97148;-78
2023/03/20 07:52:50;;;;;;;96.70;56.00;;;;;;;8.44;79.23;100572.83;105852;1264;100770;-78
2023/03/20 07:55:35;;;;;;;95.50;51.10;;;;;;;8.56;78.68;100575.05;105793;1260;100310;-78
2023/03/20 07:58:21;;;;;;;105.10;58.50;;;;;;;8.67;78.33;100579.16;105765;1261;99117;-78
2023/03/20 08:01:06;;;;;;;110.80;66.70;;;;;;;8.77;78.20;100574.33;105628;1261;96614;-78
2023/03/20 08:03:52;;;;;;;97.20;57.80;;;;;;;8.86;77.92;100573.10;105196;1262;98464;-77
2023/03/20 08:06:40;;;;;;;91.50;55.40;;;;;;;8.95;77.53;100574.55;105234;1260;100719;-78
2023/03/20 08:09:25;;;;;;;91.70;55.90;;;;;;;9.04;77.63;100576.24;105107;1264;99070;-77
2023/03/20 08:12:12;;;;;;;90.20;54.50;;;;;;;9.13;77.34;100578.18;105143;1261;99112;-77
2023/03/20 08:14:58;;;;;;;89.20;53.30;;;;;;;9.21;77.37;100578.11;105169;1261;96642;-78
2023/03/20 08:17:45;;;;;;;83.60;49.70;;;;;;;9.30;77.16;100576.64;105130;1261;97360;-77
2023/03/20 08:20:31;;;;;;;77.00;48.10;;;;;;;9.43;76.94;100573.36;105141;1261;99996;-78
2023/03/20 08:23:17;;;;;;;74.90;46.00;;;;;;;9.57;76.72;100568.59;105417;1265;100957;-77
2023/03/20 08:26:02;;;;;;;83.50;47.50;;;;;;;9.72;76.49;100569.15;105223;1261;97723;-78
2023/03/20 08:28:47;;;;;;;79.60;45.90;;;;;;;9.87;76.25;100565.59;105410;1263;97733;-77
2023/03/20 08:31:33;;;;;;;79.50;46.70;;;;;;;9.99;75.80;100561.39;105672;1261;96628;-78
2023/03/20 08:34:19;;;;;;;68.80;44.20;;;;;;;10.11;75.25;100559.14;105689;1265;101277;-79
2023/03/20 08:37:06;;;;;;;76.00;44.70;;;;;;;10.22;74.95;100558.86;105623;1260;99059;-79
2023/03/20 08:39:52;;;;;;;82.70;46.60;;;;;;;10.32;74.63;100559.93;105590;1265;99009;-79
2023/03/20 08:42:37;;;;;;;72.90;41.70;;;;;;;10.42;74.33;100564.43;105294;1264;96840;-78
2023/03/20 08:45:25;;;;;;;74.40;42.70;;;;;;;10.51;73.71;100565.45;105172;1262;96527;-78
2023/03/20 08:48:10;;;;;;;67.40;39.90;;;;;;;10.59;73.66;100567.48;105359;1261;101269;-77
2023/03/20 08:50:56;;;;;;;65.00;39.90;;;;;;;10.68;73.07;100566.23;105457;1261;99198;-78
2023/03/20 08:53:41;;;;;;;68.60;41.30;;;;;;;10.74;72.69;100571.14;105754;1261;98509;-78
2023/03/20 08:56:27;;;;;;;73.50;42.90;;;;;;;10.80;72.43;100575.08;105590;1260;96609;-79
2023/03/20 08:59:12;;;;;;;73.00;46.80;;;;;;;10.84;72.33;100579.55;105685;1260;97369;-78
2023/03/20 09:01:58;;;;;;;76.00;45.30;;;;;;;10.86;72.03;100578.90;105700;1264;100043;-79
2023/03/20 09:04:44;;;;;;;77.60;47.50;;;;;;;10.87;72.05;100577.92;105692;1265;99041;-79
2023/03/20 09:07:29;;;;;;;73.80;45.70;;;;;;;10.90;72.12;100578.95;105775;1260;97741;-78
2023/03/20 09:10:15;;;;;;;64.20;41.00;;;;;;;11.00;72.01;100579.52;105668;1263;97602;-78
2023/03/20 09:13:01;;;;;;;73.20;40.70;;;;;;;11.15;72.04;100583.48;105683;1264;96609;-79
2023/03/20 09:15:46;;;;;;;63.60;38.70;;;;;;;11.30;71.80;100581.05;105674;1260;99989;-78
2023/03/20 09:18:31;;;;;;;64.60;35.90;;;;;;;11.43;71.43;100580.02;105634;1260;99080;-78
2023/03/20 09:21:17;;;;;;;62.30;38.00;;;;;;;11.57;71.12;100576.94;105739;1264;98398;-78
2023/03/20 09:24:03;;;;;;;66.70;38.60;;;;;;;11.74;71.21;100570.81;105604;1261;97050;-79
2023/03/20 09:26:49;;;;;;;64.40;38.20;;;;;;;11.92;70.78;100570.33;105588;1260;97173;-78
2023/03/20 09:29:34;;;;;;;67.50;39.60;;;;;;;12.06;70.13;100566.98;106109;1262;99981;-78
2023/03/20 09:32:20;;;;;;;69.10;40.50;;;;;;;12.13;69.46;100568.45;105777;1264;99084;-79
2023/03/20 09:35:06;;;;;;;68.90;40.80;;;;;;;12.18;69.41;100568.52;105738;1260;99001;-78
2023/03/20 09:37:53;;;;;;;65.60;39.30;;;;;;;12.26;69.50;100565.46;105600;1265;96621;-77
2023/03/20 09:40:50;;;;;;;90.50;52.40;;;;;;;12.36;69.71;100566.48;105661;1264;98158;-77
2023/03/20 09:43:41;;;;;;;90.20;50.30;;;;;;;12.49;69.66;100570.51;105665;1264;99977;-78
2023/03/20 09:46:48;;;;;;;65.00;39.40;;;;;;;12.60;69.59;100572.48;105613;1261;100137;-78
2023/03/20 09:50:21;;;;;;;58.60;35.10;;;;;;;12.74;69.05;100574.75;106165;1260;98998;-79
2023/03/20 09:53:29;;;;;;;58.10;34.80;;;;;;;12.85;67.79;100574.41;106012;1261;96696;-79
2023/03/20 09:56:28;;;;;;;63.20;37.60;;;;;;;12.87;67.26;100573.39;105865;1265;96640;-78
2023/03/20 09:59:16;;;;;;;59.70;35.50;;;;;;;12.88;66.42;100574.13;105887;1261;101458;-79
2023/03/20 10:02:13;;;;;;;60.60;35.50;;;;;;;12.88;66.28;100573.63;105746;1264;99076;-78
2023/03/20 10:04:59;;;;;;;62.20;35.50;;;;;;;12.90;66.59;100567.97;105912;1264;97750;-78
2023/03/20 10:07:45;;;;;;;59.70;35.20;;;;;;;12.92;66.49;100566.78;106200;1259;96554;-79
2023/03/20 10:10:44;;;;;;;52.70;32.80;;;;;;;12.96;66.12;100566.88;106152;1261;96571;-79
2023/03/20 10:13:38;;;;;;;57.40;33.70;;;;;;;13.05;66.18;100564.48;106212;1264;101309;-79
2023/03/20 10:16:49;;;;;;;59.20;34.60;;;;;;;13.17;66.29;100565.75;106132;1264;99719;-80
2023/03/20 10:19:52;;;;;;;53.80;32.20;;;;;;;13.30;66.32;100565.11;106222;1260;97769;-79
2023/03/20 10:22:46;;;;;;;52.90;30.00;;;;;;;13.43;65.21;100562.77;106265;1265;96438;-80
2023/03/20 10:25:52;;;;;;;45.80;27.20;;;;;;;13.50;64.07;100558.34;106330;1262;97140;-80
2023/03/20 10:28:57;;;;;;;52.00;29.10;;;;;;;13.55;64.09;100556.43;106365;1264;100013;-79
2023/03/20 10:32:25;;;;;;;49.00;30.20;;;;;;;13.62;63.87;100556.61;106212;1261;99404;-80
2023/03/20 10:35:25;;;;;;;52.50;27.50;;;;;;;13.71;63.55;100557.14;106396;1265;98981;-79
2023/03/20 10:38:23;;;;;;;51.00;27.10;;;;;;;13.76;63.00;100552.46;106176;1260;96627;-80
2023/03/20 10:41:16;;;;;;;49.00;27.80;;;;;;;13.79;62.76;100551.16;106138;1264;118386;-80
2023/03/20 10:44:02;;;;;;;41.80;24.70;;;;;;;13.82;62.38;100553.69;106389;1265;101263;-80
2023/03/20 10:46:52;;;;;;;37.40;22.30;;;;;;;13.84;61.33;100551.08;106183;1263;99151;-79
2023/03/20 10:49:40;;;;;;;37.10;22.50;;;;;;;13.82;60.01;100549.45;106213;1265;106457;-78
2023/03/20 10:52:31;;;;;;;38.10;22.00;;;;;;;13.78;59.60;100548.64;106374;1262;96021;-78
2023/03/20 10:55:35;;;;;;;;;;;;;;;13.74;58.92;100547.73;106197;1260;96637;-79
2023/03/20 10:58:23;;;;;;;35.00;21.60;;;;;;;13.70;59.16;100549.07;106103;1260;101096;-79
2023/03/20 11:01:09;;;;;;;39.80;22.10;;;;;;;13.69;59.45;100545.79;106092;1260;100448;-79
2023/03/20 11:03:55;;;;;;;41.80;24.40;;;;;;;13.69;59.50;100548.23;106182;1265;99286;-78
2023/03/20 11:06:53;;;;;;;50.20;31.60;;;;;;;13.72;59.99;100542.97;106136;1265;96310;-79
2023/03/20 11:09:39;;;;;;;48.40;31.00;;;;;;;13.79;60.18;100540.81;106280;1260;97028;-79
2023/03/20 11:12:32;;;;;;;44.60;30.50;;;;;;;13.85;60.23;100544.62;106080;1265;101178;-79
2023/03/20 11:15:25;;;;;;;43.80;29.50;;;;;;;13.91;60.03;100541.09;106039;1260;100471;-79
2023/03/20 11:18:15;;;;;;;51.20;31.90;;;;;;;13.96;59.87;100541.58;105796;1260;97722;-80
2023/03/20 11:21:01;;;;;;;53.20;33.10;;;;;;;14.00;60.17;100538.96;105966;1264;96542;-80
2023/03/20 11:23:48;;;;;;;55.60;35.00;;;;;;;14.05;60.62;100536.25;106095;1261;97245;-79
2023/03/20 11:26:36;;;;;;;47.90;32.70;;;;;;;14.12;60.91;100533.05;105986;1265;100050;-80
2023/03/20 11:29:28;;;;;;;49.70;33.90;;;;;;;14.19;61.30;100531.28;106372;1260;99233;-79
2023/03/20 11:32:30;;;;;;;54.50;35.60;;;;;;;14.28;61.75;100532.70;105992;1261;97697;-79
2023/03/20 11:35:34;;;;;;;55.60;34.30;;;;;;;14.34;61.63;100531.11;106077;1265;98095;-79
2023/03/20 11:38:21;;;;;;;46.90;31.50;;;;;;;14.41;61.43;100529.88;105881;1262;98195;-78
2023/03/20 11:41:17;;;;;;;43.30;28.30;;;;;;;14.44;60.70;100530.78;106022;1261;100000;-79
2023/03/20 11:44:02;;;;;;;47.40;28.90;;;;;;;14.45;60.29;100526.96;106175;1264;99070;-78
2023/03/20 11:47:19;;;;;;;42.70;29.00;;;;;;;14.46;60.36;100523.22;106245;1262;97807;-79
2023/03/20 11:50:22;;;;;;;41.70;28.20;;;;;;;14.46;61.60;100521.69;106207;1264;96539;-79
2023/03/20 11:53:34;;;;;;;46.80;28.80;;;;;;;14.48;61.91;100525.17;106172;1261;97094;-80
2023/03/20 11:56:23;;;;;;;36.60;27.10;;;;;;;14.48;62.09;100522.69;106158;1264;100053;-80
2023/03/20 11:59:09;;;;;;;36.70;24.60;;;;;;;14.46;62.62;100523.39;105811;1261;100490;-79
2023/03/20 12:01:56;;;;;;;39.70;26.90;;;;;;;14.46;62.61;100524.14;105756;1264;97750;-79
2023/03/20 12:04:44;;;;;;;39.10;27.90;;;;;;;14.43;63.09;100516.54;105673;1265;97893;-78
2023/03/20 12:07:35;;;;;;;40.20;28.40;;;;;;;14.47;63.77;100516.20;105253;1259;97133;-78
2023/03/20 12:10:21;;;;;;;47.40;30.20;;;;;;;14.54;63.97;100518.28;105368;1260;100770;-79
2023/03/20 12:13:19;;;;;;;44.10;30.20;;;;;;;14.62;64.39;100516.89;105776;1261;99132;-79
2023/03/20 12:16:23;;;;;;;44.00;29.90;;;;;;;14.72;64.52;100507.26;105822;1260;99090;-86
2023/03/20 12:22:35;;;;;;;39.80;28.70;;;;;;;14.77;63.98;100512.42;106562;1259;96598;-91
2023/03/20 12:25:27;;;;;;;42.10;30.10;;;;;;;14.75;64.31;100510.81;106363;1259;99964;-89
2023/03/20 12:28:35;;;;;;;43.20;31.50;;;;;;;14.76;64.79;100508.69;106199;1267;99184;-89
2023/03/20 12:31:40;;;;;;;49.50;33.40;;;;;;;14.73;64.70;100504.97;106047;1259;97551;-87
2023/03/20 12:34:34;;;;;;;48.80;32.10;;;;;;;14.69;65.18;100505.11;105856;1262;96508;-83
2023/03/20 12:37:21;;;;;;;43.10;30.50;;;;;;;14.64;65.70;100505.73;106055;1259;96563;-82
2023/03/20 12:40:19;;;;;;;49.20;32.20;;;;;;;14.58;65.87;100506.20;105994;1259;102256;-84
2023/03/20 12:43:35;;;;;;;45.10;32.00;;;;;;;14.49;66.22;100508.04;105442;1259;99051;-85
2023/03/20 12:46:55;;;;;;;42.50;30.10;;;;;;;14.40;66.90;100508.13;105988;1265;97835;-85
2023/03/20 12:50:00;;;;;;;46.40;29.90;;;;;;;14.33;67.55;100507.56;106126;1265;95788;-79
2023/03/20 12:53:06;;;;;;;40.70;27.30;;;;;;;14.28;68.01;100504.91;106125;1259;96607;-81
2023/03/20 12:56:31;;;;;;;45.40;28.20;;;;;;;14.20;68.47;100502.93;105925;1259;100020;-81
2023/03/20 12:59:44;;;;;;;43.70;27.70;;;;;;;14.18;69.11;100501.29;105596;1267;99097;-84
2023/03/20 13:02:49;;;;;;;40.40;25.90;;;;;;;14.17;69.59;100502.00;106030;1259;97741;-88